The Lakes, NV (88901)

4:32 PM PST on January 22, 2017 (GMT -0800)
Sunrise | | Change Station
Active Advisory: Wind Advisory

Elev 1830 ft 36.05 °N, 114.97 °W | Updated 10 seconds ago

Rain
Rain
48.4 °F
Feels Like 48 °F
N
0.0
Wind Variable Wind from SW

Today
High -- | Low -- °F
--% Chance of Precip.
Yesterday
High -- | Low -- °F
Precip. -- in
Pressure 29.94 in
Visibility 10.0 miles
Clouds Mostly Cloudy 3400 ft
Overcast 4600 ft
Windchill 48 °F
Dew Point 39 °F
Humidity 71%
Rainfall 0.09 in
Snow Depth Not available.
6:46 AM 4:56 PM
Waning Crescent, 22% visible
METAR KHND 222356Z 16016G22KT 10SM -RA BKN034 OVC046 07/04 A2992 RMK AO2 SLP137 6//// T00720044 10072 20056 58013 PNO $
Pressure 29.94 in
Visibility 10.0 miles
Clouds Mostly Cloudy 3400 ft
Overcast 4600 ft
Windchill 48 °F
Dew Point 39 °F
Humidity 71%
Rainfall 0.09 in
Snow Depth Not available.
6:46 AM 4:56 PM
Waning Crescent, 22% visible
METAR KHND 222356Z 16016G22KT 10SM -RA BKN034 OVC046 07/04 A2992 RMK AO2 SLP137 6//// T00720044 10072 20056 58013 PNO $

Get Your Daily Forecast Email!

Thanks for signing up!

Be on the lookout for a verification email in your inbox.

You'll start receiving the daily forecast at 8 AM.

×

10-Day Weather Forecast

Almanac

Astronomy

Jan. 22, 2017 Rise Set
Actual Time
Civil Twilight
Nautical Twilight
Astronomical Twilight
Moon
Length of Visible Light
Length of Day
Tomorrow will be .
, % of the Moon is Illuminated

Today's Extremes

State Highs State Lows

Community

WunderPhotos

Upload Photos

1,962,540 photos uploaded!

WunderBlog® & News

Nearby

Air Quality

  Air Quality AQ Index Pollutant
Not available.

Snow Depth

Station Depth Elevation

Earthquake Activity

City Distance Mag. Time & Date
Minimum magnitude displayed is 2.5.

Coastal Water Temperatures

Place Temperature

Stations

Nearby Weather Stations

Station Location Temp. Windchill Dew Point Humidity Wind Precip. Elev Updated Type
                   

Watches & Warnings

Wind Advisory
Issued: 3:26 PM MST Jan. 22, 2017 – National Weather Service

... Wind Advisory remains in effect until 4 PM PST /5 PM MST/
Monday...

* timing... winds are expected peak tonight... then diminish Monday
afternoon. Portions of the Las Vegas Valley may not see strong
winds until tonight through Monday morning.

* Winds... south to southwest 25 to 35 mph with gusts 35 to 45
mph.

* Impacts... strong winds will create difficult driving
conditions... especially for high-profile vehicles. Loose or
unsecured objects and temporary structures may be blown away
or damaged. Strong winds can also create hazardous boating
conditions due to high wave activity.

Precautionary/preparedness actions...

Check Road conditions before departing and be prepared for sudden
strong Crosswinds. Use extreme caution on the water and be aware
of wave activity. Secure any loose objects or temporary
structures.